sensor_id;sensor_type;location;lat;lon;timestamp;pressure;altitude;pressure_sealevel;temperature;humidity
74403;BME280;62837;51.082;13.744;2023-04-08T00:02:23;100707.73;;;6.07;74.48
74403;BME280;62837;51.082;13.744;2023-04-08T00:04:54;100706.18;;;6.06;74.52
74403;BME280;62837;51.082;13.744;2023-04-08T00:07:25;100706.08;;;6.08;74.77
74403;BME280;62837;51.082;13.744;2023-04-08T00:09:56;100704.34;;;6.05;74.79
74403;BME280;62837;51.082;13.744;2023-04-08T00:12:27;100705.45;;;6.02;75.12
74403;BME280;62837;51.082;13.744;2023-04-08T00:14:57;100706.43;;;6.00;75.29
74403;BME280;62837;51.082;13.744;2023-04-08T00:17:28;100705.17;;;5.99;75.32
74403;BME280;62837;51.082;13.744;2023-04-08T00:19:59;100707.52;;;5.97;75.52
74403;BME280;62837;51.082;13.744;2023-04-08T00:22:30;100707.45;;;5.93;75.93
74403;BME280;62837;51.082;13.744;2023-04-08T00:25:01;100706.66;;;5.93;75.94
74403;BME280;62837;51.082;13.744;2023-04-08T00:27:35;100703.84;;;5.93;75.93
74403;BME280;62837;51.082;13.744;2023-04-08T00:30:07;100705.29;;;5.92;76.06
74403;BME280;62837;51.082;13.744;2023-04-08T00:32:38;100706.23;;;5.92;75.98
74403;BME280;62837;51.082;13.744;2023-04-08T00:35:09;100705.08;;;5.96;75.79
74403;BME280;62837;51.082;13.744;2023-04-08T00:37:41;100704.59;;;6.01;75.83
74403;BME280;62837;51.082;13.744;2023-04-08T00:40:12;100707.56;;;6.00;75.90
74403;BME280;62837;51.082;13.744;2023-04-08T00:42:43;100708.52;;;6.02;75.89
74403;BME280;62837;51.082;13.744;2023-04-08T00:45:14;100710.63;;;6.07;75.82
74403;BME280;62837;51.082;13.744;2023-04-08T00:47:45;100713.04;;;6.09;76.16
74403;BME280;62837;51.082;13.744;2023-04-08T00:50:21;100711.05;;;6.06;76.35
74403;BME280;62837;51.082;13.744;2023-04-08T00:52:53;100709.45;;;6.06;76.39
74403;BME280;62837;51.082;13.744;2023-04-08T00:55:24;100710.62;;;6.07;76.30
74403;BME280;62837;51.082;13.744;2023-04-08T00:57:56;100708.71;;;6.10;76.29
74403;BME280;62837;51.082;13.744;2023-04-08T01:00:28;100705.94;;;6.11;76.10
74403;BME280;62837;51.082;13.744;2023-04-08T01:03:06;100701.99;;;6.10;76.26
74403;BME280;62837;51.082;13.744;2023-04-08T01:05:49;100700.39;;;6.07;76.41
74403;BME280;62837;51.082;13.744;2023-04-08T01:08:27;100698.58;;;6.07;76.31
74403;BME280;62837;51.082;13.744;2023-04-08T01:11:02;100701.64;;;6.07;76.55
74403;BME280;62837;51.082;13.744;2023-04-08T01:13:38;100696.80;;;6.08;76.61
74403;BME280;62837;51.082;13.744;2023-04-08T01:16:13;100694.36;;;6.09;76.75
74403;BME280;62837;51.082;13.744;2023-04-08T01:18:45;100697.13;;;6.11;76.76
74403;BME280;62837;51.082;13.744;2023-04-08T01:21:18;100699.31;;;6.13;76.50
74403;BME280;62837;51.082;13.744;2023-04-08T01:23:56;100697.88;;;6.14;76.64
74403;BME280;62837;51.082;13.744;2023-04-08T01:26:29;100699.48;;;6.13;76.78
74403;BME280;62837;51.082;13.744;2023-04-08T01:29:01;100695.92;;;6.13;77.02
74403;BME280;62837;51.082;13.744;2023-04-08T01:31:33;100692.24;;;6.12;77.13
74403;BME280;62837;51.082;13.744;2023-04-08T01:34:04;100694.76;;;6.12;77.28
74403;BME280;62837;51.082;13.744;2023-04-08T01:36:37;100697.23;;;6.12;77.01
74403;BME280;62837;51.082;13.744;2023-04-08T01:39:08;100697.34;;;6.14;76.99
74403;BME280;62837;51.082;13.744;2023-04-08T01:41:41;100697.39;;;6.17;76.88
74403;BME280;62837;51.082;13.744;2023-04-08T01:44:12;100692.36;;;6.21;77.08
74403;BME280;62837;51.082;13.744;2023-04-08T01:46:44;100690.48;;;6.20;77.23
74403;BME280;62837;51.082;13.744;2023-04-08T01:49:16;100685.65;;;6.19;77.26
74403;BME280;62837;51.082;13.744;2023-04-08T01:51:48;100689.75;;;6.17;77.40
74403;BME280;62837;51.082;13.744;2023-04-08T01:54:21;100692.50;;;6.16;77.63
74403;BME280;62837;51.082;13.744;2023-04-08T01:56:54;100693.92;;;6.15;77.66
74403;BME280;62837;51.082;13.744;2023-04-08T01:59:29;100696.06;;;6.17;77.63
74403;BME280;62837;51.082;13.744;2023-04-08T02:02:02;100695.89;;;6.17;77.70
74403;BME280;62837;51.082;13.744;2023-04-08T02:04:35;100693.76;;;6.15;78.41
74403;BME280;62837;51.082;13.744;2023-04-08T02:07:06;100703.02;;;6.13;78.35
74403;BME280;62837;51.082;13.744;2023-04-08T02:09:37;100699.60;;;6.14;78.17
74403;BME280;62837;51.082;13.744;2023-04-08T02:12:08;100700.85;;;6.15;78.09
74403;BME280;62837;51.082;13.744;2023-04-08T02:14:39;100702.67;;;6.19;78.01
74403;BME280;62837;51.082;13.744;2023-04-08T02:17:12;100707.68;;;6.23;78.13
74403;BME280;62837;51.082;13.744;2023-04-08T02:19:51;100702.18;;;6.27;77.92
74403;BME280;62837;51.082;13.744;2023-04-08T02:22:28;100705.77;;;6.30;77.93
74403;BME280;62837;51.082;13.744;2023-04-08T02:25:02;100708.63;;;6.29;78.03
74403;BME280;62837;51.082;13.744;2023-04-08T02:27:35;100701.48;;;6.29;77.92
74403;BME280;62837;51.082;13.744;2023-04-08T02:30:09;100697.95;;;6.30;78.09
74403;BME280;62837;51.082;13.744;2023-04-08T02:32:40;100702.70;;;6.29;78.01
74403;BME280;62837;51.082;13.744;2023-04-08T02:35:13;100704.09;;;6.30;77.90
74403;BME280;62837;51.082;13.744;2023-04-08T02:37:46;100700.01;;;6.32;78.04
74403;BME280;62837;51.082;13.744;2023-04-08T02:40:25;100702.69;;;6.31;78.24
74403;BME280;62837;51.082;13.744;2023-04-08T02:42:58;100709.21;;;6.31;78.23
74403;BME280;62837;51.082;13.744;2023-04-08T02:45:31;100711.66;;;6.34;78.13
74403;BME280;62837;51.082;13.744;2023-04-08T02:48:03;100711.58;;;6.39;78.02
74403;BME280;62837;51.082;13.744;2023-04-08T02:50:34;100713.98;;;6.42;77.86
74403;BME280;62837;51.082;13.744;2023-04-08T02:53:05;100713.16;;;6.45;77.91
74403;BME280;62837;51.082;13.744;2023-04-08T02:55:35;100717.69;;;6.46;77.98
74403;BME280;62837;51.082;13.744;2023-04-08T02:58:07;100719.95;;;6.47;78.04
74403;BME280;62837;51.082;13.744;2023-04-08T03:00:38;100719.08;;;6.49;77.74
74403;BME280;62837;51.082;13.744;2023-04-08T03:03:09;100722.17;;;6.52;77.74
74403;BME280;62837;51.082;13.744;2023-04-08T03:05:41;100723.57;;;6.55;77.77
74403;BME280;62837;51.082;13.744;2023-04-08T03:08:12;100720.13;;;6.56;77.73
74403;BME280;62837;51.082;13.744;2023-04-08T03:10:43;100716.51;;;6.56;77.72
74403;BME280;62837;51.082;13.744;2023-04-08T03:13:13;100707.98;;;6.51;77.78
74403;BME280;62837;51.082;13.744;2023-04-08T03:15:44;100716.39;;;6.54;77.87
74403;BME280;62837;51.082;13.744;2023-04-08T03:18:15;100718.74;;;6.53;77.89
74403;BME280;62837;51.082;13.744;2023-04-08T03:20:46;100723.57;;;6.51;78.00
74403;BME280;62837;51.082;13.744;2023-04-08T03:23:16;100721.19;;;6.53;77.99
74403;BME280;62837;51.082;13.744;2023-04-08T03:25:47;100719.87;;;6.54;77.83
74403;BME280;62837;51.082;13.744;2023-04-08T03:28:18;100717.64;;;6.56;77.82
74403;BME280;62837;51.082;13.744;2023-04-08T03:30:49;100711.34;;;6.55;77.87
74403;BME280;62837;51.082;13.744;2023-04-08T03:33:19;100714.83;;;6.56;77.80
74403;BME280;62837;51.082;13.744;2023-04-08T03:35:50;100715.99;;;6.57;77.95
74403;BME280;62837;51.082;13.744;2023-04-08T03:38:21;100713.98;;;6.58;77.86
74403;BME280;62837;51.082;13.744;2023-04-08T03:40:52;100719.66;;;6.59;77.86
74403;BME280;62837;51.082;13.744;2023-04-08T03:43:23;100717.94;;;6.60;77.96
74403;BME280;62837;51.082;13.744;2023-04-08T03:45:54;100716.52;;;6.62;77.92
74403;BME280;62837;51.082;13.744;2023-04-08T03:48:25;100712.27;;;6.64;77.76
74403;BME280;62837;51.082;13.744;2023-04-08T03:50:56;100713.43;;;6.66;77.76
74403;BME280;62837;51.082;13.744;2023-04-08T03:53:27;100713.25;;;6.65;77.70
74403;BME280;62837;51.082;13.744;2023-04-08T03:55:57;100718.63;;;6.66;77.71
74403;BME280;62837;51.082;13.744;2023-04-08T03:58:28;100718.00;;;6.67;77.75
74403;BME280;62837;51.082;13.744;2023-04-08T04:01:00;100719.92;;;6.67;77.77
74403;BME280;62837;51.082;13.744;2023-04-08T04:03:31;100718.29;;;6.67;77.70
74403;BME280;62837;51.082;13.744;2023-04-08T04:06:02;100714.90;;;6.68;77.80
74403;BME280;62837;51.082;13.744;2023-04-08T04:08:32;100722.50;;;6.68;77.75
74403;BME280;62837;51.082;13.744;2023-04-08T04:11:03;100724.77;;;6.69;77.97
74403;BME280;62837;51.082;13.744;2023-04-08T04:13:34;100725.61;;;6.67;77.82
74403;BME280;62837;51.082;13.744;2023-04-08T04:16:05;100723.31;;;6.68;77.83
74403;BME280;62837;51.082;13.744;2023-04-08T04:18:36;100727.95;;;6.67;77.91
74403;BME280;62837;51.082;13.744;2023-04-08T04:21:07;100732.42;;;6.66;77.92
74403;BME280;62837;51.082;13.744;2023-04-08T04:23:38;100734.11;;;6.66;77.85
74403;BME280;62837;51.082;13.744;2023-04-08T04:26:10;100733.69;;;6.65;77.99
74403;BME280;62837;51.082;13.744;2023-04-08T04:28:41;100731.80;;;6.66;78.11
74403;BME280;62837;51.082;13.744;2023-04-08T04:31:19;100733.77;;;6.68;77.91
74403;BME280;62837;51.082;13.744;2023-04-08T04:33:51;100738.06;;;6.69;78.07
74403;BME280;62837;51.082;13.744;2023-04-08T04:36:21;100735.86;;;6.70;77.96
74403;BME280;62837;51.082;13.744;2023-04-08T04:38:52;100735.54;;;6.70;78.00
74403;BME280;62837;51.082;13.744;2023-04-08T04:41:23;100738.13;;;6.72;78.13
74403;BME280;62837;51.082;13.744;2023-04-08T04:43:55;100741.54;;;6.71;78.06
74403;BME280;62837;51.082;13.744;2023-04-08T04:46:26;100743.96;;;6.72;78.04
74403;BME280;62837;51.082;13.744;2023-04-08T04:48:57;100750.67;;;6.70;78.17
74403;BME280;62837;51.082;13.744;2023-04-08T04:51:29;100755.62;;;6.66;78.24
74403;BME280;62837;51.082;13.744;2023-04-08T04:54:00;100758.73;;;6.57;78.57
74403;BME280;62837;51.082;13.744;2023-04-08T04:56:31;100764.09;;;6.55;78.68
74403;BME280;62837;51.082;13.744;2023-04-08T04:59:01;100765.66;;;6.53;78.82
74403;BME280;62837;51.082;13.744;2023-04-08T05:01:33;100763.08;;;6.47;78.81
74403;BME280;62837;51.082;13.744;2023-04-08T05:04:04;100764.09;;;6.49;78.99
74403;BME280;62837;51.082;13.744;2023-04-08T05:06:35;100762.20;;;6.49;79.05
74403;BME280;62837;51.082;13.744;2023-04-08T05:09:06;100769.00;;;6.52;78.93
74403;BME280;62837;51.082;13.744;2023-04-08T05:11:36;100763.09;;;6.54;78.89
74403;BME280;62837;51.082;13.744;2023-04-08T05:14:07;100763.22;;;6.58;78.86
74403;BME280;62837;51.082;13.744;2023-04-08T05:16:38;100765.63;;;6.61;78.81
74403;BME280;62837;51.082;13.744;2023-04-08T05:19:09;100767.70;;;6.63;78.95
74403;BME280;62837;51.082;13.744;2023-04-08T05:21:40;100766.14;;;6.64;79.00
74403;BME280;62837;51.082;13.744;2023-04-08T05:24:11;100767.52;;;6.61;79.29
74403;BME280;62837;51.082;13.744;2023-04-08T05:26:41;100762.45;;;6.58;79.08
74403;BME280;62837;51.082;13.744;2023-04-08T05:29:12;100768.08;;;6.59;79.00
74403;BME280;62837;51.082;13.744;2023-04-08T05:31:43;100770.54;;;6.63;78.97
74403;BME280;62837;51.082;13.744;2023-04-08T05:34:14;100774.51;;;6.65;79.08
74403;BME280;62837;51.082;13.744;2023-04-08T05:36:51;100778.16;;;6.66;79.18
74403;BME280;62837;51.082;13.744;2023-04-08T05:39:22;100780.17;;;6.66;79.21
74403;BME280;62837;51.082;13.744;2023-04-08T05:41:53;100774.67;;;6.65;79.37
74403;BME280;62837;51.082;13.744;2023-04-08T05:44:23;100779.25;;;6.69;79.25
74403;BME280;62837;51.082;13.744;2023-04-08T05:46:54;100781.81;;;6.75;79.31
74403;BME280;62837;51.082;13.744;2023-04-08T05:49:26;100783.92;;;6.79;79.27
74403;BME280;62837;51.082;13.744;2023-04-08T05:51:57;100788.14;;;6.82;79.52
74403;BME280;62837;51.082;13.744;2023-04-08T05:54:27;100790.10;;;6.88;79.43
74403;BME280;62837;51.082;13.744;2023-04-08T05:56:58;100790.76;;;6.94;79.40
74403;BME280;62837;51.082;13.744;2023-04-08T05:59:28;100789.95;;;6.99;79.29
74403;BME280;62837;51.082;13.744;2023-04-08T06:01:59;100795.05;;;7.02;79.20
74403;BME280;62837;51.082;13.744;2023-04-08T06:04:30;100795.36;;;7.01;79.36
74403;BME280;62837;51.082;13.744;2023-04-08T06:07:01;100798.80;;;6.99;79.41
74403;BME280;62837;51.082;13.744;2023-04-08T06:09:35;100802.16;;;6.98;79.46
74403;BME280;62837;51.082;13.744;2023-04-08T06:12:07;100803.26;;;6.97;79.89
74403;BME280;62837;51.082;13.744;2023-04-08T06:14:37;100803.79;;;7.02;80.23
74403;BME280;62837;51.082;13.744;2023-04-08T06:17:08;100804.56;;;7.06;80.07
74403;BME280;62837;51.082;13.744;2023-04-08T06:19:39;100805.07;;;7.17;82.64
74403;BME280;62837;51.082;13.744;2023-04-08T06:22:10;100802.96;;;7.47;82.13
74403;BME280;62837;51.082;13.744;2023-04-08T06:24:41;100802.86;;;7.78;82.51
74403;BME280;62837;51.082;13.744;2023-04-08T06:27:12;100801.67;;;8.14;81.62
74403;BME280;62837;51.082;13.744;2023-04-08T06:29:42;100803.08;;;8.36;79.70
74403;BME280;62837;51.082;13.744;2023-04-08T06:32:13;100802.56;;;8.48;78.96
74403;BME280;62837;51.082;13.744;2023-04-08T06:34:45;100810.66;;;8.63;78.71
74403;BME280;62837;51.082;13.744;2023-04-08T06:37:15;100816.83;;;8.72;78.65
74403;BME280;62837;51.082;13.744;2023-04-08T06:39:46;100815.77;;;8.89;78.42
74403;BME280;62837;51.082;13.744;2023-04-08T06:42:17;100817.35;;;9.05;78.25
74403;BME280;62837;51.082;13.744;2023-04-08T06:44:57;100819.10;;;9.20;77.08
74403;BME280;62837;51.082;13.744;2023-04-08T06:47:27;100822.78;;;9.17;75.89
74403;BME280;62837;51.082;13.744;2023-04-08T06:49:59;100824.77;;;9.10;75.19
74403;BME280;62837;51.082;13.744;2023-04-08T06:52:29;100827.45;;;8.96;75.31
74403;BME280;62837;51.082;13.744;2023-04-08T06:55:00;100831.09;;;8.84;74.86
74403;BME280;62837;51.082;13.744;2023-04-08T06:57:31;100836.02;;;8.70;75.00
74403;BME280;62837;51.082;13.744;2023-04-08T07:00:02;100832.00;;;8.49;74.96
74403;BME280;62837;51.082;13.744;2023-04-08T07:02:33;100845.20;;;8.35;75.19
74403;BME280;62837;51.082;13.744;2023-04-08T07:05:05;100854.33;;;8.19;75.47
74403;BME280;62837;51.082;13.744;2023-04-08T07:07:36;100853.29;;;8.06;75.80
74403;BME280;62837;51.082;13.744;2023-04-08T07:10:09;100855.11;;;7.97;75.90
74403;BME280;62837;51.082;13.744;2023-04-08T07:12:39;100860.39;;;7.88;76.12
74403;BME280;62837;51.082;13.744;2023-04-08T07:15:11;100860.20;;;7.85;76.25
74403;BME280;62837;51.082;13.744;2023-04-08T07:17:42;100865.33;;;7.83;76.29
74403;BME280;62837;51.082;13.744;2023-04-08T07:20:14;100869.98;;;7.83;76.32
74403;BME280;62837;51.082;13.744;2023-04-08T07:22:45;100874.98;;;7.84;76.22
74403;BME280;62837;51.082;13.744;2023-04-08T07:25:16;100876.15;;;7.84;76.28
74403;BME280;62837;51.082;13.744;2023-04-08T07:27:47;100867.60;;;7.85;76.35
74403;BME280;62837;51.082;13.744;2023-04-08T07:30:19;100877.05;;;7.96;76.38
74403;BME280;62837;51.082;13.744;2023-04-08T07:32:50;100881.44;;;8.00;76.16
74403;BME280;62837;51.082;13.744;2023-04-08T07:35:25;100881.55;;;8.02;75.61
74403;BME280;62837;51.082;13.744;2023-04-08T07:37:56;100885.46;;;8.05;75.31
74403;BME280;62837;51.082;13.744;2023-04-08T07:40:27;100886.21;;;8.08;75.37
74403;BME280;62837;51.082;13.744;2023-04-08T07:42:58;100896.05;;;8.13;74.85
74403;BME280;62837;51.082;13.744;2023-04-08T07:45:29;100898.73;;;8.14;74.34
74403;BME280;62837;51.082;13.744;2023-04-08T07:47:59;100898.91;;;8.15;72.89
74403;BME280;62837;51.082;13.744;2023-04-08T07:50:30;100902.76;;;8.12;72.50
74403;BME280;62837;51.082;13.744;2023-04-08T07:53:01;100907.52;;;8.12;72.63
74403;BME280;62837;51.082;13.744;2023-04-08T07:55:35;100911.08;;;8.15;72.46
74403;BME280;62837;51.082;13.744;2023-04-08T07:58:07;100915.39;;;8.13;71.93
74403;BME280;62837;51.082;13.744;2023-04-08T08:00:38;100916.79;;;8.10;72.10
74403;BME280;62837;51.082;13.744;2023-04-08T08:03:12;100922.63;;;8.08;72.29
74403;BME280;62837;51.082;13.744;2023-04-08T08:05:43;100925.42;;;8.10;72.02
74403;BME280;62837;51.082;13.744;2023-04-08T08:08:13;100926.09;;;8.11;72.24
74403;BME280;62837;51.082;13.744;2023-04-08T08:10:44;100922.20;;;8.17;71.56
74403;BME280;62837;51.082;13.744;2023-04-08T08:13:15;100917.89;;;8.26;71.13
74403;BME280;62837;51.082;13.744;2023-04-08T08:15:52;100919.36;;;8.40;71.20
74403;BME280;62837;51.082;13.744;2023-04-08T08:18:23;100917.52;;;8.54;70.54
74403;BME280;62837;51.082;13.744;2023-04-08T08:20:54;100922.83;;;8.69;70.19
74403;BME280;62837;51.082;13.744;2023-04-08T08:23:24;100924.41;;;8.79;69.95
74403;BME280;62837;51.082;13.744;2023-04-08T08:26:00;100928.89;;;8.86;69.86
74403;BME280;62837;51.082;13.744;2023-04-08T08:28:32;100929.64;;;8.93;69.55
74403;BME280;62837;51.082;13.744;2023-04-08T08:31:02;100931.53;;;8.93;68.45
74403;BME280;62837;51.082;13.744;2023-04-08T08:33:34;100939.39;;;8.89;67.83
74403;BME280;62837;51.082;13.744;2023-04-08T08:36:05;100940.08;;;8.89;67.33
74403;BME280;62837;51.082;13.744;2023-04-08T08:38:36;100941.21;;;8.92;67.40
74403;BME280;62837;51.082;13.744;2023-04-08T08:41:07;100940.88;;;8.94;67.16
74403;BME280;62837;51.082;13.744;2023-04-08T08:43:38;100944.87;;;8.95;67.73
74403;BME280;62837;51.082;13.744;2023-04-08T08:46:10;100944.58;;;9.01;67.01
74403;BME280;62837;51.082;13.744;2023-04-08T08:48:41;100945.50;;;9.03;66.87
74403;BME280;62837;51.082;13.744;2023-04-08T08:51:13;100946.66;;;9.05;66.52
74403;BME280;62837;51.082;13.744;2023-04-08T08:53:43;100952.05;;;9.05;66.81
74403;BME280;62837;51.082;13.744;2023-04-08T08:56:14;100950.48;;;9.11;66.82
74403;BME280;62837;51.082;13.744;2023-04-08T08:58:47;100955.20;;;9.14;67.03
74403;BME280;62837;51.082;13.744;2023-04-08T09:01:35;100963.86;;;9.19;67.24
74403;BME280;62837;51.082;13.744;2023-04-08T09:04:12;100963.58;;;9.21;66.80
74403;BME280;62837;51.082;13.744;2023-04-08T09:06:46;100975.25;;;9.17;66.59
74403;BME280;62837;51.082;13.744;2023-04-08T09:09:18;100968.41;;;9.17;66.68
74403;BME280;62837;51.082;13.744;2023-04-08T09:11:49;100975.85;;;9.16;66.04
74403;BME280;62837;51.082;13.744;2023-04-08T09:14:33;100978.39;;;9.13;66.38
74403;BME280;62837;51.082;13.744;2023-04-08T09:17:04;100979.70;;;9.16;66.66
74403;BME280;62837;51.082;13.744;2023-04-08T09:19:34;100977.06;;;9.23;66.61
74403;BME280;62837;51.082;13.744;2023-04-08T09:22:07;100982.83;;;9.23;66.51
74403;BME280;62837;51.082;13.744;2023-04-08T09:24:38;100989.89;;;9.22;66.45
74403;BME280;62837;51.082;13.744;2023-04-08T09:27:09;100993.03;;;9.19;66.04
74403;BME280;62837;51.082;13.744;2023-04-08T09:29:40;100995.67;;;9.17;66.36
74403;BME280;62837;51.082;13.744;2023-04-08T09:32:11;100992.84;;;9.15;65.84
74403;BME280;62837;51.082;13.744;2023-04-08T09:34:42;100994.64;;;9.13;65.97
74403;BME280;62837;51.082;13.744;2023-04-08T09:37:13;100995.37;;;9.16;65.97
74403;BME280;62837;51.082;13.744;2023-04-08T09:39:43;101001.13;;;9.14;65.86
74403;BME280;62837;51.082;13.744;2023-04-08T09:42:14;101000.29;;;9.11;65.93
74403;BME280;62837;51.082;13.744;2023-04-08T09:44:47;100997.91;;;9.14;66.11
74403;BME280;62837;51.082;13.744;2023-04-08T09:47:19;101002.39;;;9.22;66.18
74403;BME280;62837;51.082;13.744;2023-04-08T09:49:56;101000.95;;;9.25;66.09
74403;BME280;62837;51.082;13.744;2023-04-08T09:52:36;101002.83;;;9.24;65.41
74403;BME280;62837;51.082;13.744;2023-04-08T09:55:12;101009.41;;;9.22;65.39
74403;BME280;62837;51.082;13.744;2023-04-08T09:57:53;101008.05;;;9.17;65.11
74403;BME280;62837;51.082;13.744;2023-04-08T10:00:29;101009.15;;;9.14;65.53
74403;BME280;62837;51.082;13.744;2023-04-08T10:03:09;101010.80;;;9.14;65.85
74403;BME280;62837;51.082;13.744;2023-04-08T10:05:39;101012.41;;;9.13;65.80
74403;BME280;62837;51.082;13.744;2023-04-08T10:08:11;101007.06;;;9.09;65.56
74403;BME280;62837;51.082;13.744;2023-04-08T10:10:43;101008.98;;;9.07;65.32
74403;BME280;62837;51.082;13.744;2023-04-08T10:13:16;101011.73;;;9.07;65.43
74403;BME280;62837;51.082;13.744;2023-04-08T10:15:47;101010.11;;;9.11;65.38
74403;BME280;62837;51.082;13.744;2023-04-08T10:18:33;101009.20;;;9.16;65.39
74403;BME280;62837;51.082;13.744;2023-04-08T10:21:05;101010.14;;;9.24;64.86
74403;BME280;62837;51.082;13.744;2023-04-08T10:23:57;101014.23;;;9.32;64.74
74403;BME280;62837;51.082;13.744;2023-04-08T10:26:39;101012.74;;;9.38;64.96
74403;BME280;62837;51.082;13.744;2023-04-08T10:29:42;101008.25;;;9.46;64.78
74403;BME280;62837;51.082;13.744;2023-04-08T10:32:30;101008.90;;;9.55;64.66
74403;BME280;62837;51.082;13.744;2023-04-08T10:35:10;101009.55;;;9.64;64.81
74403;BME280;62837;51.082;13.744;2023-04-08T10:37:40;101009.13;;;9.69;64.25
74403;BME280;62837;51.082;13.744;2023-04-08T10:40:19;101013.09;;;9.74;64.15
74403;BME280;62837;51.082;13.744;2023-04-08T10:42:54;101013.31;;;9.77;63.37
74403;BME280;62837;51.082;13.744;2023-04-08T10:45:25;101014.24;;;9.72;61.34
74403;BME280;62837;51.082;13.744;2023-04-08T10:47:56;101014.08;;;9.66;61.31
74403;BME280;62837;51.082;13.744;2023-04-08T10:50:27;101013.61;;;9.59;60.85
74403;BME280;62837;51.082;13.744;2023-04-08T10:52:58;101011.39;;;9.56;61.43
74403;BME280;62837;51.082;13.744;2023-04-08T10:55:29;101017.11;;;9.59;61.85
74403;BME280;62837;51.082;13.744;2023-04-08T10:58:07;101020.79;;;9.61;61.68
74403;BME280;62837;51.082;13.744;2023-04-08T11:00:39;101020.27;;;9.60;61.49
74403;BME280;62837;51.082;13.744;2023-04-08T11:03:10;101020.34;;;9.56;61.56
74403;BME280;62837;51.082;13.744;2023-04-08T11:05:44;101026.10;;;9.49;61.70
74403;BME280;62837;51.082;13.744;2023-04-08T11:08:15;101026.71;;;9.45;61.86
74403;BME280;62837;51.082;13.744;2023-04-08T11:10:49;101022.00;;;9.42;61.90
74403;BME280;62837;51.082;13.744;2023-04-08T11:13:21;101028.70;;;9.37;61.73
74403;BME280;62837;51.082;13.744;2023-04-08T11:15:53;101027.41;;;9.30;61.76
74403;BME280;62837;51.082;13.744;2023-04-08T11:18:25;101030.10;;;9.24;61.94
74403;BME280;62837;51.082;13.744;2023-04-08T11:20:57;101033.92;;;9.17;62.29
74403;BME280;62837;51.082;13.744;2023-04-08T11:23:29;101033.90;;;9.10;62.72
74403;BME280;62837;51.082;13.744;2023-04-08T11:26:00;101043.95;;;9.06;63.37
74403;BME280;62837;51.082;13.744;2023-04-08T11:28:35;101039.20;;;8.97;64.04
74403;BME280;62837;51.082;13.744;2023-04-08T11:31:06;101047.80;;;8.85;64.53
74403;BME280;62837;51.082;13.744;2023-04-08T11:33:40;101046.58;;;8.76;64.90
74403;BME280;62837;51.082;13.744;2023-04-08T11:36:13;101048.60;;;8.72;65.06
74403;BME280;62837;51.082;13.744;2023-04-08T11:38:44;101041.23;;;8.72;65.21
74403;BME280;62837;51.082;13.744;2023-04-08T11:41:16;101045.48;;;8.78;65.42
74403;BME280;62837;51.082;13.744;2023-04-08T11:43:54;101029.91;;;8.82;65.11
74403;BME280;62837;51.082;13.744;2023-04-08T11:46:25;101035.64;;;8.91;65.11
74403;BME280;62837;51.082;13.744;2023-04-08T11:49:01;101045.52;;;9.06;65.31
74403;BME280;62837;51.082;13.744;2023-04-08T11:51:33;101043.31;;;9.21;65.20
74403;BME280;62837;51.082;13.744;2023-04-08T11:54:24;101044.63;;;9.29;64.62
74403;BME280;62837;51.082;13.744;2023-04-08T11:56:56;101043.88;;;9.33;64.49
74403;BME280;62837;51.082;13.744;2023-04-08T11:59:27;101047.73;;;9.33;64.65
74403;BME280;62837;51.082;13.744;2023-04-08T12:01:58;101048.52;;;9.34;64.20
74403;BME280;62837;51.082;13.744;2023-04-08T12:04:30;101050.52;;;9.36;64.47
74403;BME280;62837;51.082;13.744;2023-04-08T12:07:02;101047.23;;;9.38;64.07
74403;BME280;62837;51.082;13.744;2023-04-08T12:09:33;101050.46;;;9.40;64.01
74403;BME280;62837;51.082;13.744;2023-04-08T12:12:04;101052.31;;;9.40;63.42
74403;BME280;62837;51.082;13.744;2023-04-08T12:14:35;101053.63;;;9.40;63.67
74403;BME280;62837;51.082;13.744;2023-04-08T12:17:06;101054.31;;;9.39;63.63
74403;BME280;62837;51.082;13.744;2023-04-08T12:19:37;101059.45;;;9.42;63.89
74403;BME280;62837;51.082;13.744;2023-04-08T12:22:07;101057.48;;;9.46;63.91
74403;BME280;62837;51.082;13.744;2023-04-08T12:24:38;101064.41;;;9.43;64.05
74403;BME280;62837;51.082;13.744;2023-04-08T12:27:09;101066.50;;;9.40;64.33
74403;BME280;62837;51.082;13.744;2023-04-08T12:29:39;101071.35;;;9.41;64.57
74403;BME280;62837;51.082;13.744;2023-04-08T12:32:10;101071.77;;;9.37;64.59
74403;BME280;62837;51.082;13.744;2023-04-08T12:34:41;101076.86;;;9.34;64.71
74403;BME280;62837;51.082;13.744;2023-04-08T12:37:12;101077.29;;;9.33;64.80
74403;BME280;62837;51.082;13.744;2023-04-08T12:39:43;101077.73;;;9.32;65.01
74403;BME280;62837;51.082;13.744;2023-04-08T12:42:14;101079.69;;;9.34;64.83
74403;BME280;62837;51.082;13.744;2023-04-08T12:44:45;101083.29;;;9.38;64.55
74403;BME280;62837;51.082;13.744;2023-04-08T12:47:16;101082.65;;;9.41;64.57
74403;BME280;62837;51.082;13.744;2023-04-08T12:49:47;101089.52;;;9.39;64.58
74403;BME280;62837;51.082;13.744;2023-04-08T12:52:18;101093.41;;;9.37;64.64
74403;BME280;62837;51.082;13.744;2023-04-08T12:54:49;101092.13;;;9.32;64.83
74403;BME280;62837;51.082;13.744;2023-04-08T12:57:20;101096.55;;;9.29;64.95
74403;BME280;62837;51.082;13.744;2023-04-08T12:59:51;101092.11;;;9.30;64.62
74403;BME280;62837;51.082;13.744;2023-04-08T13:02:22;101091.06;;;9.38;64.94
74403;BME280;62837;51.082;13.744;2023-04-08T13:04:54;101089.92;;;9.38;64.70
74403;BME280;62837;51.082;13.744;2023-04-08T13:07:24;101090.05;;;9.41;64.72
74403;BME280;62837;51.082;13.744;2023-04-08T13:09:55;101089.87;;;9.46;64.64
74403;BME280;62837;51.082;13.744;2023-04-08T13:12:26;101087.73;;;9.46;64.24
74403;BME280;62837;51.082;13.744;2023-04-08T13:14:57;101089.10;;;9.42;64.29
74403;BME280;62837;51.082;13.744;2023-04-08T13:17:28;101090.23;;;9.35;64.48